Time;durP1;ratioP1;P1;durP2;ratioP2;P2;SDS_P1;SDS_P2;PMS_P1;PMS_P2;Temp;Humidity;BMP_temperature;BMP_pressure;BME280_temperature;BME280_humidity;BME280_pressure;Samples;Min_cycle;Max_cycle;Signal;HPM_P1;HPM_P2
2022/05/24 00:01:43;;;;;;;6.78;2.95;;;;;;;18.37;71.53;95623.88;6276099;22;20456;-75
2022/05/24 00:04:11;;;;;;;5.20;2.75;;;;;;;18.38;71.07;95619.38;6276877;22;20347;-75
2022/05/24 00:06:38;;;;;;;5.57;3.00;;;;;;;18.39;70.93;95628.88;6275406;22;20019;-75
2022/05/24 00:09:06;;;;;;;7.85;2.85;;;;;;;18.39;70.04;95618.31;6275909;22;20016;-75
2022/05/24 00:11:34;;;;;;;5.25;3.08;;;;;;;18.35;69.89;95617.25;6275933;22;20467;-75
2022/05/24 00:14:03;;;;;;;6.82;3.17;;;;;;;18.35;70.62;95622.53;6276189;22;20016;-75
2022/05/24 00:16:30;;;;;;;4.38;2.70;;;;;;;18.36;70.04;95624.13;6275502;22;20019;-75
2022/05/24 00:18:58;;;;;;;6.85;2.72;;;;;;;18.35;70.42;95618.06;6276181;22;20024;-75
2022/05/24 00:21:25;;;;;;;7.05;3.15;;;;;;;18.35;69.88;95618.06;6275917;22;20091;-75
2022/05/24 00:23:53;;;;;;;5.45;2.25;;;;;;;18.34;69.80;95621.72;6276108;22;20023;-75
2022/05/24 00:26:25;;;;;;;5.10;2.40;;;;;;;18.35;70.55;95611.97;6275180;22;20024;-75
2022/05/24 00:28:53;;;;;;;4.28;2.30;;;;;;;18.31;69.61;95611.69;6276168;22;20023;-75
2022/05/24 00:31:22;;;;;;;4.47;2.45;;;;;;;18.29;70.42;95624.34;6275872;22;20030;-75
2022/05/24 00:33:50;;;;;;;5.45;2.88;;;;;;;18.28;70.10;95626.19;6276082;22;20016;-75
2022/05/24 00:36:17;;;;;;;3.72;2.53;;;;;;;18.31;70.78;95627.53;6274772;22;20029;-75
2022/05/24 00:38:45;;;;;;;3.78;2.33;;;;;;;18.33;70.07;95630.72;6276446;22;20168;-75
2022/05/24 00:41:24;;;;;;;4.53;2.80;;;;;;;18.29;69.41;95635.69;6275832;22;20030;-75
2022/05/24 00:43:56;;;;;;;5.95;2.67;;;;;;;18.30;69.63;95633.84;6277432;22;20020;-75
2022/05/24 00:46:27;;;;;;;6.22;2.80;;;;;;;18.29;69.50;95625.13;6279514;22;20400;-74
2022/05/24 00:48:59;;;;;;;7.77;2.80;;;;;;;18.30;69.54;95631.19;6278103;22;20248;-75
2022/05/24 00:51:31;;;;;;;3.05;2.08;;;;;;;18.31;70.33;95632.81;6276595;22;20300;-75
2022/05/24 00:53:58;;;;;;;4.88;2.78;;;;;;;18.33;70.06;95625.44;6274386;22;20482;-75
2022/05/24 00:56:45;;;;;;;5.65;2.65;;;;;;;18.36;71.53;95617.00;6272236;22;20024;-75
2022/05/24 00:59:23;;;;;;;5.18;2.40;;;;;;;18.38;70.90;95622.03;6275454;22;20106;-75
2022/05/24 01:01:51;;;;;;;7.05;2.90;;;;;;;18.39;70.54;95626.25;6275343;22;20103;-75
2022/05/24 01:04:20;;;;;;;5.43;3.40;;;;;;;18.37;70.34;95621.22;6273409;22;20047;-75
2022/05/24 01:06:48;;;;;;;5.70;2.55;;;;;;;18.33;69.89;95626.22;6272502;22;20026;-74
2022/05/24 01:09:18;;;;;;;6.28;2.45;;;;;;;18.28;70.01;95634.13;6285540;22;20447;-75
2022/05/24 01:11:50;;;;;;;4.38;1.98;;;;;;;18.30;71.11;95636.47;6285334;22;20043;-75
2022/05/24 01:14:21;;;;;;;4.95;2.20;;;;;;;18.30;69.92;95633.84;6277393;22;20023;-75
2022/05/24 01:16:49;;;;;;;2.38;2.10;;;;;;;18.27;69.84;95631.72;6274537;22;20130;-75
2022/05/24 01:19:31;;;;;;;5.22;2.53;;;;;;;18.26;69.69;95630.16;6275117;22;20024;-75
2022/05/24 01:22:08;;;;;;;3.08;1.85;;;;;;;18.29;70.71;95633.06;6275229;22;20047;-75
2022/05/24 01:24:42;;;;;;;4.97;2.30;;;;;;;18.31;71.38;95649.44;6275165;22;20095;-75
2022/05/24 01:27:12;;;;;;;2.90;2.03;;;;;;;18.32;71.46;95672.16;6274404;22;20074;-75
2022/05/24 01:29:39;;;;;;;4.18;1.73;;;;;;;18.31;70.40;95675.03;6275822;22;20062;-75
2022/05/24 01:37:38;;;;;;;2.05;0.98;;;;;;;18.26;72.05;95677.66;6272663;22;20525;-75
2022/05/24 01:40:07;;;;;;;1.05;0.93;;;;;;;18.24;71.40;95685.81;6273150;22;20019;-75
2022/05/24 01:42:36;;;;;;;3.55;0.90;;;;;;;18.25;71.98;95681.34;6273318;22;20115;-75
2022/05/24 01:45:09;;;;;;;1.58;0.98;;;;;;;18.25;72.05;95683.97;6273663;22;20028;-75
2022/05/24 01:47:37;;;;;;;0.90;0.90;;;;;;;18.22;71.30;95681.84;6273356;22;20550;-75
2022/05/24 01:50:09;;;;;;;1.85;0.95;;;;;;;18.16;70.66;95688.91;6275501;22;20020;-75
2022/05/24 01:52:41;;;;;;;1.17;1.10;;;;;;;18.15;71.22;95683.88;6275637;22;20023;-75
2022/05/24 01:55:12;;;;;;;1.40;1.02;;;;;;;18.16;71.92;95685.50;6275241;22;20547;-75
2022/05/24 01:57:46;;;;;;;2.38;1.15;;;;;;;18.17;71.80;95679.97;6274397;22;20091;-75
2022/05/24 02:00:15;;;;;;;1.20;0.70;;;;;;;18.17;71.34;95681.78;6275575;22;20023;-75
2022/05/24 02:02:43;;;;;;;1.25;0.90;;;;;;;18.15;70.46;95689.97;6275425;22;20027;-75
2022/05/24 02:05:11;;;;;;;1.23;0.90;;;;;;;18.12;70.64;95683.34;6275386;22;20016;-75
2022/05/24 02:07:39;;;;;;;1.25;0.98;;;;;;;18.12;71.40;95685.97;6276729;22;20021;-75
2022/05/24 02:10:08;;;;;;;2.67;0.80;;;;;;;18.10;70.31;95690.72;6277323;22;20534;-75
2022/05/24 02:12:39;;;;;;;1.17;1.02;;;;;;;18.09;70.54;95683.84;6281297;22;20046;-79
2022/05/24 02:15:11;;;;;;;2.03;1.00;;;;;;;18.10;70.40;95684.63;6288201;22;20016;-79
2022/05/24 02:17:50;;;;;;;1.25;0.90;;;;;;;18.10;71.19;95679.38;6289202;22;20024;-78
2022/05/24 02:20:22;;;;;;;0.70;0.70;;;;;;;18.05;69.32;95677.47;6289539;22;20047;-80
2022/05/24 02:22:50;;;;;;;1.02;0.90;;;;;;;17.99;69.64;95673.19;6289639;22;20098;-79
2022/05/24 02:25:23;;;;;;;2.88;1.08;;;;;;;17.97;71.61;95680.56;6289314;22;20036;-80
2022/05/24 02:27:51;;;;;;;1.33;0.90;;;;;;;17.99;71.56;95685.59;6288333;22;20479;-80
2022/05/24 02:30:22;;;;;;;2.53;1.25;;;;;;;18.01;72.35;95679.03;6288856;22;20016;-78
2022/05/24 02:32:50;;;;;;;2.33;1.20;;;;;;;17.99;72.02;95673.19;6288615;22;20422;-79
2022/05/24 02:35:19;;;;;;;2.13;1.08;;;;;;;17.98;71.75;95668.97;6290609;22;20039;-80
2022/05/24 02:37:46;;;;;;;3.15;1.02;;;;;;;17.96;70.10;95655.25;6292780;22;20030;-80
2022/05/24 02:42:59;;;;;;;1.90;1.08;;;;;;;18.02;72.31;95646.31;6293447;22;20026;-79
2022/05/24 02:45:28;;;;;;;1.45;0.93;;;;;;;17.98;70.27;95645.25;6291757;22;20070;-79
2022/05/24 02:47:57;;;;;;;0.90;0.90;;;;;;;17.88;69.84;95643.28;6290423;22;20472;-79
2022/05/24 02:50:26;;;;;;;1.10;0.90;;;;;;;17.89;71.82;95650.19;6291964;22;20050;-79
2022/05/24 02:52:54;;;;;;;1.27;0.98;;;;;;;17.87;70.01;95646.22;6290189;22;20110;-78
2022/05/24 02:55:22;;;;;;;2.25;1.25;;;;;;;17.80;69.99;95650.84;6289908;22;20075;-79
2022/05/24 02:57:49;;;;;;;1.33;1.20;;;;;;;17.76;70.30;95644.50;6289219;22;20020;-77
2022/05/24 03:00:20;;;;;;;1.08;1.08;;;;;;;17.73;70.04;95644.97;6289855;22;20022;-81
2022/05/24 03:02:50;;;;;;;2.22;0.80;;;;;;;17.71;71.21;95650.53;6287911;22;20031;-79
2022/05/24 03:05:18;;;;;;;3.33;1.25;;;;;;;17.69;70.93;95652.63;6285806;22;20098;-77
2022/05/24 03:10:40;;;;;;;2.65;1.13;;;;;;;17.75;73.71;95653.44;6231630;22;20020;-77
2022/05/24 03:15:53;;;;;;;1.23;1.17;;;;;;;17.77;71.39;95654.78;6288065;22;20024;-82
2022/05/24 03:18:24;;;;;;;2.33;1.52;;;;;;;17.74;70.56;95649.22;6290882;22;20023;-80
2022/05/24 03:20:51;;;;;;;2.30;1.00;;;;;;;17.71;70.67;95638.13;6290189;22;20016;-80
2022/05/24 03:23:19;;;;;;;5.53;1.75;;;;;;;17.74;72.68;95646.59;6287245;22;20016;-81
2022/05/24 03:25:46;;;;;;;1.08;1.00;;;;;;;17.80;73.67;95656.13;6287122;22;20407;-80
2022/05/24 03:28:20;;;;;;;2.58;1.10;;;;;;;17.80;70.83;95659.56;6288037;22;20062;-78
2022/05/24 03:30:48;;;;;;;2.60;1.40;;;;;;;17.76;72.05;95662.97;6288984;22;20455;-82
2022/05/24 03:33:16;;;;;;;4.30;1.73;;;;;;;17.76;73.63;95660.31;6287952;22;20035;-81
2022/05/24 03:35:45;;;;;;;2.10;1.17;;;;;;;17.75;72.21;95656.06;6291740;22;20404;-81
2022/05/24 03:38:12;;;;;;;1.38;1.27;;;;;;;17.71;70.96;95661.88;6292068;22;20083;-80
2022/05/24 03:40:40;;;;;;;3.15;1.77;;;;;;;17.70;70.78;95654.97;6290812;22;20050;-77
2022/05/24 03:43:11;;;;;;;1.98;1.63;;;;;;;17.75;72.10;95661.34;6290787;22;20020;-81
2022/05/24 03:45:39;;;;;;;1.33;1.13;;;;;;;17.80;72.42;95666.66;6288674;22;20023;-84
2022/05/24 03:48:13;;;;;;;1.60;1.50;;;;;;;17.81;71.15;95657.72;6286822;22;20365;-81
2022/05/24 03:50:40;;;;;;;2.15;1.92;;;;;;;17.75;70.49;95648.97;6287829;22;20058;-80
2022/05/24 03:53:09;;;;;;;4.93;1.45;;;;;;;17.68;70.44;95648.38;6286914;22;20019;-82
2022/05/24 03:55:37;;;;;;;3.05;1.40;;;;;;;17.61;71.07;95643.31;6288042;22;20024;-82
2022/05/24 03:58:04;;;;;;;3.83;1.65;;;;;;;17.58;70.76;95645.63;6285833;22;20359;-77
2022/05/24 04:00:35;;;;;;;1.60;1.50;;;;;;;17.54;70.76;95655.91;6286823;22;20359;-80
2022/05/24 04:03:04;;;;;;;1.80;1.60;;;;;;;17.50;70.71;95649.53;6285091;22;20027;-80
2022/05/24 04:05:32;;;;;;;7.20;1.65;;;;;;;17.46;70.11;95662.41;6286144;22;20343;-78
2022/05/24 04:08:02;;;;;;;1.45;1.35;;;;;;;17.46;70.70;95674.78;6284082;22;20276;-82
2022/05/24 04:10:32;;;;;;;2.03;1.40;;;;;;;17.49;71.80;95679.56;6289265;22;20022;-79
2022/05/24 04:13:00;;;;;;;1.63;1.40;;;;;;;17.54;72.88;95671.72;6291453;22;20030;-80
2022/05/24 04:15:28;;;;;;;1.77;1.60;;;;;;;17.54;70.78;95677.00;6292933;22;20019;-78
2022/05/24 04:17:55;;;;;;;2.00;1.80;;;;;;;17.53;70.46;95680.66;6288713;22;20046;-78
2022/05/24 04:20:25;;;;;;;2.05;1.67;;;;;;;17.54;71.58;95682.25;6292246;22;20075;-82
2022/05/24 04:22:54;;;;;;;2.03;1.85;;;;;;;17.60;71.88;95694.47;6291159;22;20027;-78
2022/05/24 04:25:23;;;;;;;2.42;1.70;;;;;;;17.65;71.39;95699.78;6289816;22;20042;-80
2022/05/24 04:27:52;;;;;;;2.20;2.00;;;;;;;17.66;70.82;95704.00;6288378;22;20618;-78
2022/05/24 04:30:20;;;;;;;3.33;2.15;;;;;;;17.65;71.04;95704.25;6289135;22;20019;-83
2022/05/24 04:32:48;;;;;;;4.18;1.77;;;;;;;17.66;71.00;95706.63;6287705;22;20082;-78
2022/05/24 04:35:16;;;;;;;4.28;2.08;;;;;;;17.67;70.14;95700.31;6288414;22;20360;-78
2022/05/24 04:37:43;;;;;;;2.28;1.58;;;;;;;17.66;69.86;95701.34;6291276;22;20024;-78
2022/05/24 04:40:12;;;;;;;2.10;2.00;;;;;;;17.59;69.66;95708.69;6291095;22;20531;-81
2022/05/24 04:42:39;;;;;;;2.75;1.50;;;;;;;17.56;70.40;95706.53;6292565;22;20067;-79
2022/05/24 04:45:11;;;;;;;3.80;2.28;;;;;;;17.55;70.05;95709.41;6293132;22;20035;-80
2022/05/24 04:47:39;;;;;;;1.73;1.63;;;;;;;17.49;70.12;95711.19;6292267;22;20031;-81
2022/05/24 04:50:10;;;;;;;1.90;1.80;;;;;;;17.42;70.40;95706.13;6292763;22;20022;-80
2022/05/24 04:52:40;;;;;;;2.63;1.70;;;;;;;17.40;70.64;95710.84;6293059;22;20034;-81
2022/05/24 04:55:11;;;;;;;2.95;2.30;;;;;;;17.44;71.88;95709.31;6290419;22;20027;-85
2022/05/24 04:57:39;;;;;;;2.10;1.85;;;;;;;17.42;70.28;95692.94;6288478;22;20110;-84
2022/05/24 05:00:13;;;;;;;2.88;2.40;;;;;;;17.40;70.58;95665.22;6289897;22;20019;-83
2022/05/24 05:02:41;;;;;;;7.00;3.97;;;;;;;17.37;70.55;95634.09;6287918;22;20036;-81
2022/05/24 05:05:10;;;;;;;2.35;2.00;;;;;;;17.34;71.09;95655.66;6290179;22;20054;-85
2022/05/24 05:07:37;;;;;;;3.20;1.92;;;;;;;17.34;71.18;95695.22;6291679;22;20024;-84
2022/05/24 05:10:06;;;;;;;1.92;1.70;;;;;;;17.38;72.52;95714.75;6294643;22;20023;-89
2022/05/24 05:12:34;;;;;;;2.35;1.83;;;;;;;17.43;72.74;95709.56;6293014;22;20099;-86
2022/05/24 05:15:02;;;;;;;2.70;1.70;;;;;;;17.48;72.05;95718.31;6294438;22;20023;-80
2022/05/24 05:17:31;;;;;;;3.03;1.77;;;;;;;17.55;73.38;95725.25;6293587;22;20026;-83
2022/05/24 05:19:59;;;;;;;1.65;1.55;;;;;;;17.59;73.39;95727.13;6293642;22;20042;-81
2022/05/24 05:22:27;;;;;;;1.95;1.75;;;;;;;17.64;73.52;95735.09;6293038;22;20073;-79
2022/05/24 05:24:54;;;;;;;1.63;1.52;;;;;;;17.66;71.55;95733.00;6291094;22;20079;-81
2022/05/24 05:27:22;;;;;;;2.33;1.70;;;;;;;17.72;73.49;95747.06;6288830;22;20071;-87
2022/05/24 05:32:56;;;;;;;1.75;1.63;;;;;;;17.76;70.71;95729.69;6289862;22;20051;-88
2022/05/24 05:35:27;;;;;;;2.95;1.77;;;;;;;17.77;72.02;95743.66;6286765;22;20076;-87
2022/05/24 05:38:13;;;;;;;3.53;2.47;;;;;;;17.82;73.15;95747.19;6286831;22;20024;-86
2022/05/24 05:40:45;;;;;;;3.67;2.33;;;;;;;17.85;71.37;95738.00;6290967;22;20016;-88
2022/05/24 05:43:15;;;;;;;2.38;2.17;;;;;;;17.83;70.51;95732.16;6289561;22;20023;-81
2022/05/24 05:45:43;;;;;;;3.58;1.90;;;;;;;17.86;72.96;95744.84;6291258;22;20026;-79
2022/05/24 05:48:12;;;;;;;2.38;2.15;;;;;;;17.87;72.35;95735.91;6289809;22;20030;-79
2022/05/24 05:50:40;;;;;;;3.92;1.98;;;;;;;17.90;74.04;95738.81;6285722;22;20103;-77
2022/05/24 05:53:07;;;;;;;1.88;1.70;;;;;;;17.91;72.34;95750.97;6284819;22;20071;-81
2022/05/24 05:55:37;;;;;;;3.08;1.90;;;;;;;17.89;70.44;95754.91;6286394;22;20055;-84
2022/05/24 05:58:04;;;;;;;1.50;1.40;;;;;;;17.87;70.87;95759.66;6283927;22;20047;-77
2022/05/24 06:00:32;;;;;;;3.97;2.10;;;;;;;17.87;69.92;95759.66;6282342;22;20074;-76
2022/05/24 06:03:00;;;;;;;3.28;2.00;;;;;;;17.83;69.39;95750.63;6281493;22;20906;-79
2022/05/24 06:05:29;;;;;;;2.47;2.28;;;;;;;17.75;69.29;95751.03;6282051;22;20069;-79
2022/05/24 06:07:57;;;;;;;2.00;1.90;;;;;;;17.71;70.31;95764.72;6280225;22;20103;-77
2022/05/24 06:10:26;;;;;;;2.85;1.88;;;;;;;17.73;70.70;95768.94;6281392;22;20024;-80
2022/05/24 06:12:55;;;;;;;1.90;1.73;;;;;;;17.69;70.17;95758.13;6282427;22;20024;-79
2022/05/24 06:15:25;;;;;;;3.28;2.17;;;;;;;17.64;69.97;95766.75;6284132;22;20047;-80
2022/05/24 06:17:53;;;;;;;2.13;1.90;;;;;;;17.57;70.27;95771.41;6282047;22;20030;-78
2022/05/24 06:20:24;;;;;;;2.78;2.05;;;;;;;17.54;70.37;95782.47;6285240;22;20491;-77
2022/05/24 06:22:54;;;;;;;3.97;2.10;;;;;;;17.54;71.81;95776.41;6283174;22;20024;-77
2022/05/24 06:25:23;;;;;;;2.22;2.03;;;;;;;17.55;71.11;95773.50;6282091;22;20058;-77
2022/05/24 06:27:51;;;;;;;3.42;1.60;;;;;;;17.49;70.97;95764.75;6280252;22;20022;-79
2022/05/24 06:30:20;;;;;;;2.90;1.80;;;;;;;17.43;71.21;95767.56;6282680;22;20082;-79
2022/05/24 06:32:47;;;;;;;3.15;1.75;;;;;;;17.38;71.55;95767.47;6283783;22;20024;-77
2022/05/24 06:35:16;;;;;;;2.80;1.45;;;;;;;17.37;71.87;95777.25;6285749;22;20594;-79
2022/05/24 06:37:43;;;;;;;1.48;1.38;;;;;;;17.38;72.31;95778.03;6288053;22;20050;-79
2022/05/24 06:40:15;;;;;;;3.47;1.83;;;;;;;17.39;71.46;95775.16;6288373;22;20042;-79
2022/05/24 06:42:43;;;;;;;3.30;1.60;;;;;;;17.40;71.28;95770.69;6289193;22;20474;-79
2022/05/24 06:45:12;;;;;;;3.22;1.30;;;;;;;17.39;71.34;95779.63;6289151;22;20102;-79
2022/05/24 06:47:40;;;;;;;4.55;1.95;;;;;;;17.38;71.17;95783.31;6286864;22;20515;-79
2022/05/24 06:50:10;;;;;;;2.00;1.83;;;;;;;17.40;71.44;95789.13;6287570;22;20678;-79
2022/05/24 06:52:37;;;;;;;2.53;1.80;;;;;;;17.40;71.59;95791.75;6288361;22;20094;-78
2022/05/24 06:55:06;;;;;;;2.13;1.20;;;;;;;17.41;71.26;95782.84;6289174;22;20043;-79
2022/05/24 06:57:35;;;;;;;4.60;1.42;;;;;;;17.42;71.74;95779.13;6287628;22;20062;-80
2022/05/24 07:02:49;;;;;;;2.10;1.70;;;;;;;17.47;71.59;95781.81;6291862;22;20023;-82
2022/05/24 07:05:21;;;;;;;2.15;1.67;;;;;;;17.49;72.27;95777.09;6290793;22;20026;-79
2022/05/24 07:07:48;;;;;;;5.23;1.50;;;;;;;17.53;71.69;95780.84;6290412;22;20027;-81
2022/05/24 07:10:16;;;;;;;2.45;1.67;;;;;;;17.58;72.91;95788.84;6290718;22;20258;-79
2022/05/24 07:12:46;;;;;;;5.50;1.80;;;;;;;17.64;71.95;95801.03;6288520;22;20031;-79
2022/05/24 07:15:14;;;;;;;2.40;1.60;;;;;;;17.70;72.05;95797.41;6288132;22;20487;-80
2022/05/24 07:17:41;;;;;;;2.10;1.65;;;;;;;17.78;72.97;95792.75;6287596;22;20022;-78
2022/05/24 07:20:10;;;;;;;3.00;1.50;;;;;;;17.86;73.19;95797.59;6289606;22;20094;-79
2022/05/24 07:22:39;;;;;;;2.65;1.58;;;;;;;17.90;72.30;95802.13;6289551;22;20047;-78
2022/05/24 07:25:08;;;;;;;1.77;1.42;;;;;;;17.92;71.55;95794.00;6287219;22;20078;-82
2022/05/24 07:27:35;;;;;;;2.63;1.40;;;;;;;17.92;71.40;95797.41;6286165;22;20039;-79
2022/05/24 07:30:05;;;;;;;2.60;1.50;;;;;;;17.96;72.47;95803.00;6285749;22;20098;-79
2022/05/24 07:32:34;;;;;;;2.30;1.40;;;;;;;17.94;70.82;95797.19;6285088;22;20090;-80
2022/05/24 07:35:01;;;;;;;2.13;1.40;;;;;;;17.95;71.21;95797.97;6287881;22;20054;-80
2022/05/24 07:37:29;;;;;;;3.67;1.77;;;;;;;17.97;71.16;95804.59;6286691;22;20022;-79
2022/05/24 07:48:09;;;;;;;2.95;1.67;;;;;;;18.04;70.57;95807.84;6288112;22;20257;-78
2022/05/24 07:50:37;;;;;;;7.32;1.60;;;;;;;18.06;70.54;95815.50;6288354;22;20055;-78
2022/05/24 07:53:05;;;;;;;2.88;1.35;;;;;;;18.06;70.41;95816.31;6287810;22;20020;-80
2022/05/24 07:55:32;;;;;;;2.72;1.73;;;;;;;18.07;70.03;95814.47;6286080;22;20072;-78
2022/05/24 07:58:00;;;;;;;2.95;1.52;;;;;;;18.09;71.21;95815.81;6285355;22;20011;-79
2022/05/24 08:00:29;;;;;;;4.00;1.60;;;;;;;18.12;70.47;95819.78;6287215;22;20024;-78
2022/05/24 08:02:57;;;;;;;3.15;1.63;;;;;;;18.16;70.98;95817.47;6286004;22;20023;-79
2022/05/24 08:05:24;;;;;;;2.08;1.42;;;;;;;18.21;69.66;95818.28;6286149;22;20034;-79
2022/05/24 08:07:54;;;;;;;2.58;1.42;;;;;;;18.30;70.74;95818.63;6285640;22;20095;-77
2022/05/24 08:10:22;;;;;;;2.58;1.40;;;;;;;18.37;68.74;95827.19;6285646;22;20387;-79
2022/05/24 08:26:36;;;;;;;0.88;0.47;;;;;;;17.80;63.04;95988.50;6287068;22;20011;-78
2022/05/24 09:01:36;;;;;;;6.32;2.55;;;;;;;16.94;63.13;95992.16;6243452;23;20035;-80
2022/05/24 09:04:24;;;;;;;4.07;2.58;;;;;;;16.94;64.04;95994.00;6213607;23;20025;-79
2022/05/24 09:24:33;;;;;;;1.42;0.52;;;;;;;17.11;63.57;96005.38;6216866;23;20016;-81
2022/05/24 09:27:46;;;;;;;2.33;1.00;;;;;;;17.15;64.79;96016.25;6213171;23;20278;-79
2022/05/24 09:31:18;;;;;;;0.30;0.30;;;;;;;17.15;62.23;96027.56;6208574;23;20056;-80
2022/05/24 09:34:14;;;;;;;2.38;1.45;;;;;;;17.16;62.72;96026.53;6152864;23;20014;-79
2022/05/24 09:37:28;;;;;;;2.17;0.68;;;;;;;17.21;63.57;96029.28;6152487;23;20029;-80
2022/05/24 09:40:53;;;;;;;0.60;0.47;;;;;;;17.25;62.57;96022.50;6151328;23;20033;-81
2022/05/24 10:00:33;;;;;;;0.75;0.30;;;;;;;17.65;63.90;96023.38;6183296;23;20057;-84
2022/05/24 10:03:46;;;;;;;0.65;0.45;;;;;;;17.68;63.67;96036.88;6183848;23;20041;-82
2022/05/24 10:20:59;;;;;;;4.60;2.22;;;;;;;17.80;63.54;96038.63;6261666;22;20019;-79
2022/05/24 10:43:47;;;;;;;3.10;1.02;;;;;;;18.37;60.18;96022.56;6227685;22;20008;-80
2022/05/24 12:08:16;;;;;;;2.85;1.85;;;;;;;19.31;50.33;96063.00;6236750;22;20011;-80
2022/05/24 12:11:44;;;;;;;3.63;1.63;;;;;;;19.35;50.59;96069.38;6274453;22;20004;-80
2022/05/24 19:07:58;;;;;;;2.20;1.23;;;;;;;18.33;58.69;96187.78;6221916;22;20076;-79
2022/05/24 19:10:30;;;;;;;1.17;0.80;;;;;;;18.29;58.96;96197.22;6269159;23;20008;-80
2022/05/24 19:13:04;;;;;;;1.42;0.90;;;;;;;18.22;59.74;96194.75;6281937;22;20091;-80
2022/05/24 19:15:42;;;;;;;1.75;0.77;;;;;;;18.16;59.80;96206.25;6244237;22;20021;-80
2022/05/24 19:18:22;;;;;;;1.77;1.17;;;;;;;18.15;60.22;96217.06;6244519;23;20027;-80
2022/05/24 19:21:00;;;;;;;0.73;0.73;;;;;;;18.15;60.42;96225.81;6242861;23;20051;-80
2022/05/24 19:23:39;;;;;;;3.25;0.90;;;;;;;18.14;60.85;96232.09;6214428;23;20005;-81
2022/05/24 19:26:36;;;;;;;1.67;1.00;;;;;;;18.17;60.88;96241.38;6212762;23;20056;-80
2022/05/24 19:29:13;;;;;;;1.77;1.17;;;;;;;18.15;60.97;96240.81;6213903;23;20064;-80
2022/05/24 19:31:52;;;;;;;1.02;0.93;;;;;;;18.07;61.36;96252.56;6213828;23;20013;-79
2022/05/24 19:34:33;;;;;;;1.55;0.90;;;;;;;17.98;62.45;96257.44;6214367;23;20037;-80
2022/05/24 19:37:04;;;;;;;0.93;0.88;;;;;;;17.94;62.74;96252.88;6213782;23;20061;-80
2022/05/24 19:45:52;;;;;;;1.90;0.90;;;;;;;17.75;63.12;96275.97;6269655;22;20028;-80
2022/05/24 19:48:22;;;;;;;2.58;1.00;;;;;;;17.68;62.95;96282.19;6258955;23;20016;-81
2022/05/24 19:50:50;;;;;;;1.27;1.15;;;;;;;17.64;63.35;96288.16;6262949;23;20016;-81
2022/05/24 19:53:19;;;;;;;1.90;1.02;;;;;;;17.57;63.56;96288.28;6263413;23;20020;-80
2022/05/24 19:56:37;;;;;;;1.52;1.20;;;;;;;17.49;64.40;96302.66;6264649;22;20007;-81
2022/05/24 19:59:17;;;;;;;1.98;1.17;;;;;;;17.46;64.25;96302.31;6264194;23;20475;-81
2022/05/24 20:02:05;;;;;;;2.72;1.35;;;;;;;17.44;64.32;96299.09;6263470;22;20048;-81
2022/05/24 20:04:51;;;;;;;2.42;1.15;;;;;;;17.43;64.69;96308.06;6262991;23;20024;-81
2022/05/24 20:07:27;;;;;;;1.48;1.38;;;;;;;17.39;64.63;96314.81;6262296;23;20020;-81
2022/05/24 20:10:10;;;;;;;3.15;1.50;;;;;;;17.27;64.74;96299.84;6263427;23;20355;-80
2022/05/24 20:13:10;;;;;;;;;;;;;;;17.20;64.65;96309.66;6264039;22;20043;-81
2022/05/24 20:15:47;;;;;;;2.67;1.67;;;;;;;17.14;64.67;96322.97;6264062;23;19922;-81
2022/05/24 20:18:18;;;;;;;1.80;1.63;;;;;;;17.07;65.17;96321.25;6267363;23;20027;-81
2022/05/24 20:20:51;;;;;;;;;;;;;;;17.03;65.30;96316.66;6269785;23;20028;-81
2022/05/24 20:23:23;;;;;;;1.75;1.50;;;;;;;16.97;65.80;96310.50;6268466;22;19916;-81
2022/05/24 20:26:12;;;;;;;1.88;1.67;;;;;;;16.93;66.34;96316.47;6270402;22;20096;-81
2022/05/24 20:28:53;;;;;;;4.03;3.03;;;;;;;16.86;66.30;96312.09;6271824;22;20024;-81
2022/05/24 20:31:31;;;;;;;1.75;1.30;;;;;;;16.77;66.23;96316.06;6271546;22;20011;-81
2022/05/24 20:34:09;;;;;;;3.78;1.60;;;;;;;16.68;66.75;96314.78;6269270;23;20067;-81
2022/05/24 20:36:39;;;;;;;1.85;1.70;;;;;;;16.63;66.69;96310.19;6264220;22;20027;-81
2022/05/24 20:39:51;;;;;;;3.08;1.67;;;;;;;16.62;67.46;96313.88;6272976;23;20024;-80
2022/05/24 20:49:25;;;;;;;8.65;3.67;;;;;;;16.67;67.92;96318.47;6267935;23;20031;-82
2022/05/24 20:53:00;;;;;;;5.10;2.35;;;;;;;16.68;68.36;96317.41;6267989;22;20020;-83
2022/05/24 21:04:03;;;;;;;2.97;2.03;;;;;;;16.61;68.83;96312.25;6254199;23;20032;-82
2022/05/24 21:15:00;;;;;;;2.25;2.03;;;;;;;16.43;67.94;96307.88;6205552;23;20025;-82
2022/05/24 21:34:25;;;;;;;2.38;1.52;;;;;;;16.25;67.15;96324.53;6266372;23;20047;-82
2022/05/24 21:43:49;;;;;;;3.83;1.50;;;;;;;16.28;66.98;96339.88;6269272;23;20031;-82
2022/05/24 21:53:58;;;;;;;2.30;1.48;;;;;;;16.26;66.52;96341.94;6263480;23;20031;-82
2022/05/24 22:03:42;;;;;;;1.45;1.35;;;;;;;16.15;66.86;96347.94;6254542;23;20024;-82
2022/05/24 22:06:56;;;;;;;1.08;1.02;;;;;;;16.15;67.08;96355.06;6230164;23;20031;-82
2022/05/24 22:25:11;;;;;;;1.90;0.93;;;;;;;16.11;67.15;96361.78;6179076;23;20060;-82
2022/05/24 22:28:57;;;;;;;1.33;1.08;;;;;;;16.13;67.40;96370.25;6179248;23;20029;-82
2022/05/24 22:45:35;;;;;;;1.60;1.10;;;;;;;16.26;67.28;96376.13;6225391;23;20012;-82
2022/05/24 22:58:11;;;;;;;2.42;1.20;;;;;;;15.91;67.76;96391.75;6270081;23;20039;-82
2022/05/24 23:05:07;;;;;;;1.13;1.02;;;;;;;15.99;68.73;96388.84;6267571;23;20079;-82
2022/05/24 23:24:21;;;;;;;2.83;1.13;;;;;;;15.63;69.40;96372.03;6267504;23;20024;-82
2022/05/24 23:33:34;;;;;;;2.65;1.50;;;;;;;15.54;69.60;96365.44;6271141;22;20024;-82
2022/05/24 23:36:58;;;;;;;2.25;1.17;;;;;;;15.52;69.22;96372.75;6267772;23;20071;-82
2022/05/24 23:40:09;;;;;;;2.83;1.27;;;;;;;15.52;69.57;96378.00;6271040;23;20064;-82
2022/05/24 23:43:22;;;;;;;1.60;1.33;;;;;;;15.54;69.56;96365.44;6270259;22;20031;-82
2022/05/24 23:46:08;;;;;;;4.35;1.35;;;;;;;15.55;69.00;96374.16;6269101;23;20031;-82
2022/05/24 23:49:14;;;;;;;3.03;1.10;;;;;;;15.50;69.19;96373.97;6266470;23;20047;-82
2022/05/24 23:52:08;;;;;;;3.50;1.25;;;;;;;15.47;69.14;96385.75;6253339;22;20024;-82
2022/05/24 23:54:58;;;;;;;1.35;1.25;;;;;;;15.50;70.13;96380.03;6236586;23;20082;-82
